Welcome to Des Moines Iowa Weather. I am an independent private personal weather station on the Northwest Side of Des Moines, Iowa. Just East of Windsor Heights and just West of Glendale . This site is also mobile friendly.

There are no active watches, warnings or advisories


Visit our other weather sites:

Historical Data

Weather Station Setup



Weather Underground History page Text

Daily Summary for March 2, 2018 Units:  Metric    English   Both
« Previous Day
Next Day »
Daily Weekly Monthly Yearly Custom
  High: Low: Average:
Temperature: 10.1 °C -5 °C 2.7 °C
Dew Point: -1.9 °C -6.7 °C -4.6 °C
Humidity: 93 % 32 % 64 %
Wind Speed: 14.5 km/h 0 km/h 3.1 km/h
Wind Gust: 35.4 km/h - -
Wind:- - SSE
Pressure: 1031.4 hPa 1024.6 hPa -
Precipitation: 0 mm    
Historical Graphs
 
 
Tabular Data for March 2, 2018
Time Temperature Dew Point Pressure Wind Wind Speed Wind Gust Humidity Rainfall Rate (Hourly)
00:00 -2.5 °C -5 °C 1028.7 hPa Calm     83 % 0 mm
00:05 -2.5 °C -5 °C 1028.7 hPa Calm     83 % 0 mm
00:06 -2.8 °C -5 °C 1029 hPa Calm     84 % 0 mm
00:10 -2.5 °C -5 °C 1028.7 hPa Calm     83 % 0 mm
00:15 -2.7 °C -5.2 °C 1029 hPa Calm     83 % 0 mm
00:20 -2.9 °C -5 °C 1029.3 hPa Calm     85 % 0 mm
00:25 -2.7 °C -5.2 °C 1029 hPa Calm     83 % 0 mm
00:30 -2.9 °C -5.1 °C 1029.3 hPa Calm     85 % 0 mm
00:35 -2.9 °C -5.1 °C 1029.3 hPa Calm     85 % 0 mm
00:36 -3.2 °C -5.6 °C 1029.3 hPa Calm     85 % 0 mm
00:40 -2.9 °C -5.1 °C 1029.3 hPa Calm     85 % 0 mm
00:45 -3.1 °C -5.2 °C 1029.3 hPa Calm     85 % 0 mm
00:50 -3.1 °C -5.2 °C 1029.3 hPa Calm     85 % 0 mm
00:51 -3.3 °C -5.6 °C 1029.3 hPa Calm     86 % 0 mm
00:55 -3.1 °C -5.2 °C 1029.3 hPa Calm     85 % 0 mm
01:00 -3.3 °C -5.3 °C 1029.3 hPa Calm     86 % 0 mm
01:05 -3.3 °C -5.3 °C 1029.3 hPa Calm     86 % 0 mm
01:06 -3.5 °C -5.6 °C 1029.7 hPa Calm     86 % 0 mm
01:10 -3.3 °C -5.3 °C 1029.3 hPa Calm     86 % 0 mm
01:15 -3.4 °C -5.4 °C 1029.7 hPa Calm     86 % 0 mm
01:20 -3.4 °C -5.4 °C 1029.7 hPa Calm     86 % 0 mm
01:21 -3.7 °C -5.6 °C 1029.7 hPa Calm     86 % 0 mm
01:25 -3.4 °C -5.4 °C 1029.7 hPa Calm     86 % 0 mm
01:30 -3.6 °C -5.4 °C 1029.7 hPa Calm     87 % 0 mm
01:35 -3.6 °C -5.4 °C 1029.7 hPa Calm     87 % 0 mm
01:36 -3.8 °C -5.6 °C 1029.7 hPa Calm     87 % 0 mm
01:40 -3.6 °C -5.4 °C 1029.7 hPa Calm     87 % 0 mm
01:45 -3.8 °C -5.8 °C 1030 hPa Calm     86 % 0 mm
01:50 -3.8 °C -5.8 °C 1030 hPa Calm     86 % 0 mm
01:51 -4.1 °C -6.1 °C 1030 hPa Calm     87 % 0 mm
01:55 -3.8 °C -5.8 °C 1030 hPa Calm     86 % 0 mm
02:00 -4 °C -5.8 °C 1029.7 hPa Calm     87 % 0 mm
02:05 -4 °C -5.8 °C 1029.7 hPa Calm     87 % 0 mm
02:06 -4.3 °C -6.1 °C 1029.7 hPa Calm     87 % 0 mm
02:10 -4 °C -5.8 °C 1029.7 hPa Calm     87 % 0 mm
02:15 -4.2 °C -6 °C 1029.7 hPa Calm     87 % 0 mm
02:20 -4.2 °C -6 °C 1029.7 hPa Calm     87 % 0 mm
02:21 -4.2 °C -5.6 °C 1029 hPa WNW 1.6 km/h 3.2 km/h 88 % 0 mm
02:25 -4.2 °C -6 °C 1029.7 hPa Calm     87 % 0 mm
02:30 -4.3 °C -5.9 °C 1029.7 hPa Calm     88 % 0 mm
02:35 -4.3 °C -5.9 °C 1029.7 hPa Calm     88 % 0 mm
02:36 -3.8 °C -5 °C 1028.3 hPa North 3.2 km/h 4.8 km/h 90 % 0 mm
02:40 -4.3 °C -5.9 °C 1029.7 hPa Calm     88 % 0 mm
02:45 -4.2 °C -5.7 °C 1028.7 hPa WNW 1.6 km/h 3.2 km/h 89 % 0 mm
02:50 -4.2 °C -5.7 °C 1028.7 hPa WNW 1.6 km/h 3.2 km/h 89 % 0 mm
02:51 -3.1 °C -4.4 °C 1029 hPa Calm   6.4 km/h 90 % 0 mm
02:55 -4.2 °C -5.7 °C 1028.7 hPa WNW 1.6 km/h 3.2 km/h 89 % 0 mm
03:00 -3.3 °C -4.7 °C 1028.7 hPa North 1.6 km/h 6.4 km/h 90 % 0 mm
03:05 -3.3 °C -4.7 °C 1028.7 hPa North 1.6 km/h 6.4 km/h 90 % 0 mm
03:06 -2.9 °C -4.4 °C 1029.3 hPa Calm     90 % 0 mm
03:10 -3.3 °C -4.7 °C 1028.7 hPa North 1.6 km/h 6.4 km/h 90 % 0 mm
03:15 -3 °C -4.4 °C 1029.3 hPa Calm   6.4 km/h 90 % 0 mm
03:20 -3 °C -4.4 °C 1029.3 hPa Calm   6.4 km/h 90 % 0 mm
03:21 -3 °C -4.4 °C 1029.3 hPa Calm     90 % 0 mm
03:25 -3 °C -4.4 °C 1029.3 hPa Calm   6.4 km/h 90 % 0 mm
03:30 -2.9 °C -4.3 °C 1029.3 hPa Calm     90 % 0 mm
03:35 -2.9 °C -4.3 °C 1029.3 hPa Calm     90 % 0 mm
03:36 -3.3 °C -5 °C 1029.7 hPa Calm     89 % 0 mm
03:40 -2.9 °C -4.3 °C 1029.3 hPa Calm     90 % 0 mm
03:45 -3.2 °C -4.6 °C 1029.7 hPa Calm     90 % 0 mm
03:50 -3.2 °C -4.6 °C 1029.7 hPa Calm     90 % 0 mm
03:51 -3.6 °C -5 °C 1029.7 hPa Calm     89 % 0 mm
03:55 -3.2 °C -4.6 °C 1029.7 hPa Calm     90 % 0 mm
04:00 -3.4 °C -5 °C 1029.7 hPa Calm     89 % 0 mm
04:05 -3.4 °C -5 °C 1029.7 hPa Calm     89 % 0 mm
04:06 -3.8 °C -5.6 °C 1029.3 hPa Calm     89 % 0 mm
04:10 -3.4 °C -5 °C 1029.7 hPa Calm     89 % 0 mm
04:15 -3.7 °C -5.3 °C 1029.3 hPa Calm     89 % 0 mm
04:20 -3.7 °C -5.3 °C 1029.3 hPa Calm     89 % 0 mm
04:21 -4.1 °C -5.6 °C 1029.7 hPa Calm     89 % 0 mm
04:25 -3.7 °C -5.3 °C 1029.3 hPa Calm     89 % 0 mm
04:30 -4 °C -5.6 °C 1029.7 hPa Calm     89 % 0 mm
04:35 -4 °C -5.6 °C 1029.7 hPa Calm     89 % 0 mm
04:36 -4.4 °C -6.1 °C 1029.7 hPa Calm     89 % 0 mm
04:40 -4 °C -5.6 °C 1029.7 hPa Calm     89 % 0 mm
04:45 -4.3 °C -5.8 °C 1029.7 hPa Calm     89 % 0 mm
04:50 -4.3 °C -5.8 °C 1029.7 hPa Calm     89 % 0 mm
04:51 -4.5 °C -6.1 °C 1029.3 hPa Calm     89 % 0 mm
04:55 -4.3 °C -5.8 °C 1029.7 hPa Calm     89 % 0 mm
05:00 -4.5 °C -6.1 °C 1029.7 hPa Calm     89 % 0 mm
05:05 -4.5 °C -6.1 °C 1029.7 hPa Calm     89 % 0 mm
05:06 -4.7 °C -6.1 °C 1029.7 hPa Calm     89 % 0 mm
05:10 -4.5 °C -6.1 °C 1029.7 hPa Calm     89 % 0 mm
05:15 -4.6 °C -6.1 °C 1029.7 hPa Calm     89 % 0 mm
05:20 -4.6 °C -6.1 °C 1029.7 hPa Calm     89 % 0 mm
05:21 -4.8 °C -6.1 °C 1029.7 hPa Calm     89 % 0 mm
05:25 -4.6 °C -6.1 °C 1029.7 hPa Calm     89 % 0 mm
05:30 -4.8 °C -6.3 °C 1029.7 hPa Calm     89 % 0 mm
05:35 -4.8 °C -6.3 °C 1029.7 hPa Calm     89 % 0 mm
05:36 -5 °C -6.7 °C 1029.7 hPa Calm     89 % 0 mm
05:40 -4.8 °C -6.3 °C 1029.7 hPa Calm     89 % 0 mm
05:45 -4.9 °C -6.4 °C 1029.7 hPa Calm     89 % 0 mm
05:50 -4.9 °C -6.4 °C 1029.7 hPa Calm     89 % 0 mm
05:51 -5 °C -6.1 °C 1029.7 hPa Calm     90 % 0 mm
05:55 -4.9 °C -6.4 °C 1029.7 hPa Calm     89 % 0 mm
06:00 -5 °C -6.4 °C 1030 hPa Calm     90 % 0 mm
06:05 -5 °C -6.4 °C 1030 hPa Calm     90 % 0 mm
06:06 -4.9 °C -6.1 °C 1029.3 hPa Calm     90 % 0 mm
06:10 -5 °C -6.4 °C 1030 hPa Calm     90 % 0 mm
06:15 -5 °C -6.4 °C 1029.7 hPa Calm     90 % 0 mm
06:20 -5 °C -6.4 °C 1029.7 hPa Calm     90 % 0 mm
06:21 -4.8 °C -6.1 °C 1029.3 hPa Calm     91 % 0 mm
06:25 -5 °C -6.4 °C 1029.7 hPa Calm     90 % 0 mm
06:30 -4.8 °C -6.1 °C 1029.3 hPa Calm     91 % 0 mm
06:35 -4.8 °C -6.1 °C 1029.3 hPa Calm     91 % 0 mm
06:36 -4.6 °C -5.6 °C 1029.3 hPa Calm     91 % 0 mm
06:40 -4.8 °C -6.1 °C 1029.3 hPa Calm     91 % 0 mm
06:45 -4.7 °C -5.9 °C 1029.3 hPa Calm     91 % 0 mm
06:50 -4.7 °C -5.9 °C 1029.3 hPa Calm     91 % 0 mm
06:51 -4.4 °C -5.6 °C 1029.7 hPa Calm     92 % 0 mm
06:55 -4.7 °C -5.9 °C 1029.3 hPa Calm     91 % 0 mm
07:00 -4.5 °C -5.7 °C 1029.7 hPa Calm     91 % 0 mm
07:05 -4.5 °C -5.7 °C 1029.7 hPa Calm     91 % 0 mm
07:06 -4.2 °C -5 °C 1029 hPa Calm     92 % 0 mm
07:10 -4.5 °C -5.7 °C 1029.7 hPa Calm     91 % 0 mm
07:15 -4.3 °C -5.4 °C 1029.3 hPa Calm     92 % 0 mm
07:20 -4.3 °C -5.4 °C 1029.3 hPa Calm     92 % 0 mm
07:21 -3.9 °C -5 °C 1029.7 hPa Calm     92 % 0 mm
07:25 -4.3 °C -5.4 °C 1029.3 hPa Calm     92 % 0 mm
07:30 -4.1 °C -5.2 °C 1029.3 hPa Calm     92 % 0 mm
07:35 -4.1 °C -5.2 °C 1029.3 hPa Calm     92 % 0 mm
07:36 -3.8 °C -5 °C 1030 hPa Calm     92 % 0 mm
07:40 -4.1 °C -5.2 °C 1029.3 hPa Calm     92 % 0 mm
07:45 -3.8 °C -4.9 °C 1030 hPa Calm     92 % 0 mm
07:50 -3.8 °C -4.9 °C 1030 hPa Calm     92 % 0 mm
07:51 -3.2 °C -3.9 °C 1030 hPa SW 1.6 km/h 6.4 km/h 93 % 0 mm
07:55 -3.8 °C -4.9 °C 1030 hPa Calm     92 % 0 mm
08:00 -3.6 °C -4.5 °C 1030 hPa Calm     93 % 0 mm
08:05 -3.6 °C -4.5 °C 1030 hPa Calm     93 % 0 mm
08:06 -2.6 °C -3.3 °C 1030.4 hPa SW 4.8 km/h 4.8 km/h 93 % 0 mm
08:10 -3.6 °C -4.5 °C 1030 hPa Calm     93 % 0 mm
08:15 -2.8 °C -3.8 °C 1030.4 hPa SW 1.6 km/h 6.4 km/h 93 % 0 mm
08:20 -2.8 °C -3.8 °C 1030.4 hPa SW 1.6 km/h 6.4 km/h 93 % 0 mm
08:21 -2.1 °C -3.3 °C 1031 hPa SW 3.2 km/h 6.4 km/h 92 % 0 mm
08:25 -2.8 °C -3.8 °C 1030.4 hPa SW 1.6 km/h 6.4 km/h 93 % 0 mm
08:30 -2.3 °C -3.3 °C 1030.7 hPa SW 1.6 km/h 8 km/h 93 % 0 mm
08:35 -2.3 °C -3.3 °C 1030.7 hPa SW 1.6 km/h 8 km/h 93 % 0 mm
08:40 -2.3 °C -3.3 °C 1030.7 hPa SW 1.6 km/h 8 km/h 93 % 0 mm
08:45 -1.2 °C -2.5 °C 1031 hPa SW 3.2 km/h 3.2 km/h 91 % 0 mm
08:50 -1 °C -2.4 °C 1031 hPa SW 3.2 km/h 4.8 km/h 90 % 0 mm
08:51 -1 °C -2.2 °C 1031 hPa Calm   9.7 km/h 90 % 0 mm
08:55 -0.9 °C -2.5 °C 1031 hPa SW 3.2 km/h 3.2 km/h 89 % 0 mm
09:00 -0.8 °C -2.6 °C 1031.4 hPa SW 3.2 km/h 3.2 km/h 88 % 0 mm
09:05 -0.8 °C -2.7 °C 1031.4 hPa SW 3.2 km/h 3.2 km/h 87 % 0 mm
09:07 -0.7 °C -2.8 °C 1031.4 hPa Calm   4.8 km/h 87 % 0 mm
09:10 -0.7 °C -2.6 °C 1031.4 hPa SW 1.6 km/h 4.8 km/h 87 % 0 mm
09:15 -0.5 °C -2.4 °C 1031.4 hPa SW 1.6 km/h   87 % 0 mm
09:20 -0.3 °C -2.3 °C 1031.4 hPa SSW 1.6 km/h 6.4 km/h 86 % 0 mm
09:22 -0.1 °C -2.2 °C 1031.4 hPa South 3.2 km/h 9.7 km/h 86 % 0 mm
09:25 -0.1 °C -2.2 °C 1031.4 hPa SSW 1.6 km/h 9.7 km/h 86 % 0 mm
09:30 -0.1 °C -2.2 °C 1031.4 hPa SSW 1.6 km/h 9.7 km/h 86 % 0 mm
09:35 0.5 °C -2.1 °C 1031.4 hPa South 3.2 km/h 9.7 km/h 83 % 0 mm
09:37 0.8 °C -2.2 °C 1031.4 hPa South 1.6 km/h 14.5 km/h 80 % 0 mm
09:40 0.5 °C -2.1 °C 1031.4 hPa South 3.2 km/h 9.7 km/h 83 % 0 mm
09:45 0.5 °C -2.1 °C 1031.4 hPa South 3.2 km/h 9.7 km/h 83 % 0 mm
09:50 1.2 °C -2.2 °C 1031.4 hPa South 3.2 km/h 14.5 km/h 78 % 0 mm
09:52 1.4 °C -2.2 °C 1031.4 hPa South 1.6 km/h 9.7 km/h 76 % 0 mm
09:55 1.2 °C -2.2 °C 1031.4 hPa South 3.2 km/h 14.5 km/h 78 % 0 mm
10:00 1.2 °C -2.2 °C 1031.4 hPa South 3.2 km/h 14.5 km/h 78 % 0 mm
10:05 1.8 °C -2.1 °C 1031.4 hPa South 3.2 km/h 9.7 km/h 75 % 0 mm
10:07 2.3 °C -2.2 °C 1031 hPa South 3.2 km/h 12.9 km/h 72 % 0 mm
10:10 1.8 °C -2.1 °C 1031.4 hPa South 3.2 km/h 9.7 km/h 75 % 0 mm
10:15 1.8 °C -2.1 °C 1031.4 hPa South 3.2 km/h 9.7 km/h 75 % 0 mm
10:20 2.7 °C -2.1 °C 1031 hPa South 4.8 km/h 14.5 km/h 71 % 0 mm
10:22 3.1 °C -2.2 °C 1031 hPa SE 4.8 km/h 8 km/h 69 % 0 mm
10:25 2.7 °C -2.1 °C 1031 hPa South 4.8 km/h 14.5 km/h 71 % 0 mm
10:30 2.7 °C -2.1 °C 1031 hPa South 4.8 km/h 14.5 km/h 71 % 0 mm
10:35 3.9 °C -2.1 °C 1031 hPa South 3.2 km/h 11.3 km/h 65 % 0 mm
10:37 4 °C -2.8 °C 1030.7 hPa SSE 6.4 km/h 14.5 km/h 63 % 0 mm
10:40 3.9 °C -2.1 °C 1031 hPa South 3.2 km/h 11.3 km/h 65 % 0 mm
10:45 3.9 °C -2.1 °C 1031 hPa South 3.2 km/h 11.3 km/h 65 % 0 mm
10:50 4.2 °C -2.2 °C 1030.7 hPa SE 4.8 km/h 14.5 km/h 63 % 0 mm
10:52 4.2 °C -2.8 °C 1030.7 hPa SSE 6.4 km/h 14.5 km/h 62 % 0 mm
10:55 4.2 °C -2.2 °C 1030.7 hPa SE 4.8 km/h 14.5 km/h 63 % 0 mm
11:00 4.2 °C -2.2 °C 1030.7 hPa SE 4.8 km/h 14.5 km/h 63 % 0 mm
11:05 4.6 °C -2.3 °C 1030.4 hPa SSE 4.8 km/h 16.1 km/h 61 % 0 mm
11:07 4.9 °C -2.2 °C 1030.4 hPa East 3.2 km/h 12.9 km/h 60 % 0 mm
11:10 4.6 °C -2.3 °C 1030.4 hPa SSE 4.8 km/h 16.1 km/h 61 % 0 mm
11:15 4.6 °C -2.3 °C 1030.4 hPa SSE 4.8 km/h 16.1 km/h 61 % 0 mm
11:20 5.4 °C -1.9 °C 1030.4 hPa ESE 4.8 km/h 14.5 km/h 59 % 0 mm
11:22 5.7 °C -2.8 °C 1030.4 hPa SSE 6.4 km/h 16.1 km/h 55 % 0 mm
11:25 5.4 °C -1.9 °C 1030.4 hPa ESE 4.8 km/h 14.5 km/h 59 % 0 mm
11:30 5.4 °C -1.9 °C 1030.4 hPa ESE 4.8 km/h 14.5 km/h 59 % 0 mm
11:35 5.7 °C -2.7 °C 1030.4 hPa South 6.4 km/h 16.1 km/h 55 % 0 mm
11:37 5.9 °C -3.3 °C 1030.4 hPa SE 4.8 km/h 12.9 km/h 53 % 0 mm
11:40 5.7 °C -2.7 °C 1030.4 hPa South 6.4 km/h 16.1 km/h 55 % 0 mm
11:45 5.7 °C -2.7 °C 1030.4 hPa South 6.4 km/h 16.1 km/h 55 % 0 mm
11:50 6.4 °C -3 °C 1030.4 hPa SSE 4.8 km/h 14.5 km/h 51 % 0 mm
11:52 6.8 °C -2.8 °C 1030.4 hPa East 3.2 km/h 12.9 km/h 51 % 0 mm
11:55 6.4 °C -3 °C 1030.4 hPa SSE 4.8 km/h 14.5 km/h 51 % 0 mm
12:00 6.4 °C -3 °C 1030.4 hPa SSE 4.8 km/h 14.5 km/h 51 % 0 mm
12:05 7.1 °C -2.4 °C 1030.4 hPa ESE 4.8 km/h 14.5 km/h 51 % 0 mm
12:07 6.9 °C -3.9 °C 1030 hPa SSE 8 km/h 17.7 km/h 47 % 0 mm
12:10 7.1 °C -2.4 °C 1030.4 hPa ESE 4.8 km/h 14.5 km/h 51 % 0 mm
12:15 7.1 °C -2.4 °C 1030.4 hPa ESE 4.8 km/h 14.5 km/h 51 % 0 mm
12:20 6.6 °C -3.7 °C 1030 hPa SSE 6.4 km/h 17.7 km/h 48 % 0 mm
12:22 6.8 °C -3.3 °C 1029.7 hPa SSE 1.6 km/h 12.9 km/h 49 % 0 mm
12:25 6.6 °C -3.7 °C 1030 hPa SSE 6.4 km/h 17.7 km/h 48 % 0 mm
12:30 6.6 °C -3.7 °C 1030 hPa SSE 6.4 km/h 17.7 km/h 48 % 0 mm
12:35 7.7 °C -2.9 °C 1029.3 hPa SE 6.4 km/h 20.9 km/h 47 % 0 mm
12:40 7.7 °C -2.9 °C 1029.3 hPa SE 6.4 km/h 20.9 km/h 47 % 0 mm
12:45 7.7 °C -2.9 °C 1029.3 hPa SE 6.4 km/h 20.9 km/h 47 % 0 mm
12:50 7.9 °C -2.9 °C 1029 hPa SE 4.8 km/h 16.1 km/h 46 % 0 mm
12:52 8.3 °C -2.8 °C 1028.7 hPa SE 6.4 km/h 16.1 km/h 46 % 0 mm
12:55 7.9 °C -2.9 °C 1029 hPa SE 4.8 km/h 16.1 km/h 46 % 0 mm
13:00 7.9 °C -2.9 °C 1029 hPa SE 4.8 km/h 16.1 km/h 46 % 0 mm
13:05 8.4 °C -3.1 °C 1028.7 hPa SE 4.8 km/h 16.1 km/h 44 % 0 mm
13:07 8.8 °C -3.3 °C 1028.3 hPa South 3.2 km/h 12.9 km/h 42 % 0 mm
13:10 8.4 °C -3.1 °C 1028.7 hPa SE 4.8 km/h 16.1 km/h 44 % 0 mm
13:15 8.4 °C -3.1 °C 1028.7 hPa SE 4.8 km/h 16.1 km/h 44 % 0 mm
13:20 8.9 °C -4.6 °C 1028 hPa SSE 4.8 km/h 19.3 km/h 38 % 0 mm
13:22 8.9 °C -4.4 °C 1027.7 hPa SE 3.2 km/h 16.1 km/h 39 % 0 mm
13:25 8.9 °C -4.6 °C 1028 hPa SSE 4.8 km/h 19.3 km/h 38 % 0 mm
13:30 8.9 °C -4.6 °C 1028 hPa SSE 4.8 km/h 19.3 km/h 38 % 0 mm
13:35 9.3 °C -3.9 °C 1027.7 hPa SSE 6.4 km/h 16.1 km/h 39 % 0 mm
13:37 9.1 °C -4.4 °C 1027.3 hPa SE 8 km/h 19.3 km/h 38 % 0 mm
13:40 9.3 °C -3.9 °C 1027.7 hPa SSE 6.4 km/h 16.1 km/h 39 % 0 mm
13:45 9.3 °C -3.9 °C 1027.7 hPa SSE 6.4 km/h 16.1 km/h 39 % 0 mm
13:50 9.3 °C -3.9 °C 1027 hPa SSE 6.4 km/h 19.3 km/h 39 % 0 mm
13:53 9.5 °C -5.6 °C 1026.6 hPa ESE 3.2 km/h 19.3 km/h 35 % 0 mm
13:55 9.3 °C -3.9 °C 1027 hPa SSE 6.4 km/h 19.3 km/h 39 % 0 mm
14:00 9.3 °C -3.9 °C 1027 hPa SSE 6.4 km/h 19.3 km/h 39 % 0 mm
14:05 9.6 °C -5.1 °C 1026.6 hPa SSE 8 km/h 20.9 km/h 35 % 0 mm
14:08 9.7 °C -5 °C 1026.3 hPa South 1.6 km/h 24.1 km/h 36 % 0 mm
14:10 9.6 °C -5.1 °C 1026.6 hPa SSE 8 km/h 20.9 km/h 35 % 0 mm
14:15 9.6 °C -5.1 °C 1026.6 hPa SSE 8 km/h 20.9 km/h 35 % 0 mm
14:20 9.7 °C -4.6 °C 1026 hPa South 6.4 km/h 25.7 km/h 36 % 0 mm
14:23 9.7 °C -5 °C 1026 hPa SSE 6.4 km/h 32.2 km/h 35 % 0 mm
14:25 9.7 °C -4.6 °C 1026 hPa South 6.4 km/h 25.7 km/h 36 % 0 mm
14:30 9.7 °C -4.6 °C 1026 hPa South 6.4 km/h 25.7 km/h 36 % 0 mm
14:35 9.8 °C -5.3 °C 1025.6 hPa SSE 8 km/h 35.4 km/h 34 % 0 mm
14:38 9.9 °C -5.6 °C 1025.3 hPa SSE 11.3 km/h 17.7 km/h 34 % 0 mm
14:40 9.8 °C -5.3 °C 1025.6 hPa SSE 8 km/h 35.4 km/h 34 % 0 mm
14:45 9.8 °C -5.3 °C 1025.6 hPa SSE 8 km/h 35.4 km/h 34 % 0 mm
14:50 9.9 °C -5.2 °C 1025.3 hPa SSE 8 km/h 25.7 km/h 34 % 0 mm
14:53 9.9 °C -5.6 °C 1025.3 hPa South 4.8 km/h 20.9 km/h 33 % 0 mm
14:55 9.9 °C -5.2 °C 1025.3 hPa SSE 8 km/h 25.7 km/h 34 % 0 mm
15:00 9.9 °C -5.2 °C 1025.3 hPa SSE 8 km/h 25.7 km/h 34 % 0 mm
15:05 10.1 °C -4.7 °C 1025.3 hPa South 6.4 km/h 24.1 km/h 35 % 0 mm
15:08 10.1 °C -6.1 °C 1025.6 hPa South 12.9 km/h 17.7 km/h 32 % 0 mm
15:10 10.1 °C -4.7 °C 1025.3 hPa South 6.4 km/h 24.1 km/h 35 % 0 mm
15:15 10.1 °C -4.7 °C 1025.3 hPa South 6.4 km/h 24.1 km/h 35 % 0 mm
15:20 10 °C -5.1 °C 1025.6 hPa South 8 km/h 17.7 km/h 34 % 0 mm
15:23 10 °C -5.6 °C 1025.3 hPa ESE 14.5 km/h 22.5 km/h 33 % 0 mm
15:25 10 °C -5.1 °C 1025.6 hPa South 8 km/h 17.7 km/h 34 % 0 mm
15:30 10 °C -5.1 °C 1025.6 hPa South 8 km/h 17.7 km/h 34 % 0 mm
15:35 9.9 °C -5.6 °C 1025.3 hPa SSE 6.4 km/h 25.7 km/h 33 % 0 mm
15:38 9.9 °C -6.1 °C 1025.3 hPa South 11.3 km/h 16.1 km/h 32 % 0 mm
15:40 9.9 °C -5.6 °C 1025.3 hPa SSE 6.4 km/h 25.7 km/h 33 % 0 mm
15:45 9.9 °C -5.6 °C 1025.3 hPa SSE 6.4 km/h 25.7 km/h 33 % 0 mm
15:50 9.9 °C -5.6 °C 1025.3 hPa SE 8 km/h 25.7 km/h 33 % 0 mm
15:53 10.1 °C -5.6 °C 1025.3 hPa SE 8 km/h 17.7 km/h 33 % 0 mm
15:55 9.9 °C -5.6 °C 1025.3 hPa SE 8 km/h 25.7 km/h 33 % 0 mm
16:00 9.9 °C -5.6 °C 1025.3 hPa SE 8 km/h 25.7 km/h 33 % 0 mm
16:05 9.9 °C -5.2 °C 1025.3 hPa SSE 6.4 km/h 20.9 km/h 34 % 0 mm
16:08 10.1 °C -5.6 °C 1025.3 hPa ESE 4.8 km/h 17.7 km/h 33 % 0 mm
16:10 9.9 °C -5.2 °C 1025.3 hPa SSE 6.4 km/h 20.9 km/h 34 % 0 mm
16:15 9.9 °C -5.2 °C 1025.3 hPa SSE 6.4 km/h 20.9 km/h 34 % 0 mm
16:20 10.1 °C -5.5 °C 1025.3 hPa SSE 6.4 km/h 24.1 km/h 33 % 0 mm
16:23 10 °C -5.6 °C 1025.3 hPa SE 4.8 km/h 12.9 km/h 34 % 0 mm
16:25 10.1 °C -5.5 °C 1025.3 hPa SSE 6.4 km/h 24.1 km/h 33 % 0 mm
16:30 10.1 °C -5.5 °C 1025.3 hPa SSE 6.4 km/h 24.1 km/h 33 % 0 mm
16:35 9.9 °C -5.2 °C 1025.3 hPa SE 6.4 km/h 17.7 km/h 34 % 0 mm
16:38 9.9 °C -5.6 °C 1024.9 hPa SSE 9.7 km/h 14.5 km/h 33 % 0 mm
16:40 9.9 °C -5.2 °C 1025.3 hPa SE 6.4 km/h 17.7 km/h 34 % 0 mm
16:45 9.9 °C -5.2 °C 1025.3 hPa SE 6.4 km/h 17.7 km/h 34 % 0 mm
16:50 9.9 °C -5.2 °C 1024.9 hPa SSE 6.4 km/h 29 km/h 34 % 0 mm
16:53 9.7 °C -6.1 °C 1024.9 hPa SSE 4.8 km/h 30.6 km/h 33 % 0 mm
16:55 9.9 °C -5.2 °C 1024.9 hPa SSE 6.4 km/h 29 km/h 34 % 0 mm
17:00 9.9 °C -5.2 °C 1024.9 hPa SSE 6.4 km/h 29 km/h 34 % 0 mm
17:05 9.6 °C -5.6 °C 1024.6 hPa SSE 8 km/h 22.5 km/h 34 % 0 mm
17:08 9.5 °C -5.6 °C 1024.6 hPa SSE 9.7 km/h 16.1 km/h 34 % 0 mm
17:10 9.6 °C -5.6 °C 1024.6 hPa SSE 8 km/h 22.5 km/h 34 % 0 mm
17:15 9.6 °C -5.6 °C 1024.6 hPa SSE 8 km/h 22.5 km/h 34 % 0 mm
17:20 9.4 °C -5.6 °C 1024.6 hPa South 8 km/h 22.5 km/h 34 % 0 mm
17:23 9.3 °C -5.6 °C 1024.6 hPa SSE 1.6 km/h 19.3 km/h 35 % 0 mm
17:25 9.4 °C -5.6 °C 1024.6 hPa South 8 km/h 22.5 km/h 34 % 0 mm
17:35 9.2 °C -5.4 °C 1024.6 hPa SSE 6.4 km/h 20.9 km/h 35 % 0 mm
17:38 9.1 °C -5.6 °C 1024.6 hPa SE 1.6 km/h 20.9 km/h 35 % 0 mm
17:40 9.2 °C -5.4 °C 1024.6 hPa SSE 6.4 km/h 20.9 km/h 35 % 0 mm
17:45 9.2 °C -5.4 °C 1024.6 hPa SSE 6.4 km/h 20.9 km/h 35 % 0 mm
17:50 9 °C -5.6 °C 1024.6 hPa SSE 6.4 km/h 24.1 km/h 35 % 0 mm
17:53 8.9 °C -6.1 °C 1024.6 hPa SE 4.8 km/h 19.3 km/h 35 % 0 mm
17:55 9 °C -5.6 °C 1024.6 hPa SSE 6.4 km/h 24.1 km/h 35 % 0 mm
18:00 9 °C -5.6 °C 1024.6 hPa SSE 6.4 km/h 24.1 km/h 35 % 0 mm
18:05 8.7 °C -5.5 °C 1024.6 hPa SSE 6.4 km/h 20.9 km/h 36 % 0 mm
18:08 8.6 °C -6.1 °C 1024.6 hPa SE 3.2 km/h 12.9 km/h 36 % 0 mm
18:10 8.7 °C -5.5 °C 1024.6 hPa SSE 6.4 km/h 20.9 km/h 36 % 0 mm
18:15 8.7 °C -5.5 °C 1024.6 hPa SSE 6.4 km/h 20.9 km/h 36 % 0 mm
18:20 8.4 °C -5.8 °C 1024.6 hPa SE 4.8 km/h 16.1 km/h 36 % 0 mm
18:23 8.2 °C -6.1 °C 1024.9 hPa SE 4.8 km/h 14.5 km/h 36 % 0 mm
18:25 8.4 °C -5.8 °C 1024.6 hPa SE 4.8 km/h 16.1 km/h 36 % 0 mm
18:30 8.4 °C -5.8 °C 1024.6 hPa SE 4.8 km/h 16.1 km/h 36 % 0 mm
18:35 8.1 °C -5.7 °C 1024.9 hPa SSE 4.8 km/h 17.7 km/h 37 % 0 mm
18:38 7.9 °C -6.1 °C 1024.9 hPa SE 1.6 km/h 6.4 km/h 37 % 0 mm
18:40 8.1 °C -5.7 °C 1024.9 hPa SSE 4.8 km/h 17.7 km/h 37 % 0 mm
18:45 8.1 °C -5.7 °C 1024.9 hPa SSE 4.8 km/h 17.7 km/h 37 % 0 mm
18:50 7.8 °C -5.7 °C 1025.3 hPa SSE 3.2 km/h 14.5 km/h 38 % 0 mm
18:53 7.6 °C -6.1 °C 1025.3 hPa SSE 1.6 km/h 11.3 km/h 38 % 0 mm
18:55 7.8 °C -5.7 °C 1025.3 hPa SSE 3.2 km/h 14.5 km/h 38 % 0 mm
19:00 7.8 °C -5.7 °C 1025.3 hPa SSE 3.2 km/h 14.5 km/h 38 % 0 mm
19:05 7.4 °C -5.6 °C 1025.3 hPa SSE 1.6 km/h 11.3 km/h 39 % 0 mm
19:08 7.3 °C -5.6 °C 1025.3 hPa Calm   11.3 km/h 40 % 0 mm
19:10 7.4 °C -5.6 °C 1025.3 hPa SSE 1.6 km/h 11.3 km/h 39 % 0 mm
19:20 7.2 °C -5.2 °C 1025.3 hPa SSE 3.2 km/h 11.3 km/h 41 % 0 mm
19:23 7 °C -5.6 °C 1025.3 hPa SSE 9.7 km/h 9.7 km/h 41 % 0 mm
19:25 7.2 °C -5.2 °C 1025.3 hPa SSE 3.2 km/h 11.3 km/h 41 % 0 mm
19:30 7.2 °C -5.2 °C 1025.3 hPa SSE 3.2 km/h 11.3 km/h 41 % 0 mm
19:35 6.8 °C -5.2 °C 1025.3 hPa SSE 1.6 km/h 9.7 km/h 42 % 0 mm
19:38 6.7 °C -5 °C 1025.3 hPa SSE 1.6 km/h 9.7 km/h 43 % 0 mm
19:40 6.8 °C -5.2 °C 1025.3 hPa SSE 1.6 km/h 9.7 km/h 42 % 0 mm
19:45 6.8 °C -5.2 °C 1025.3 hPa SSE 1.6 km/h 9.7 km/h 42 % 0 mm
19:50 6.5 °C -4.9 °C 1025.3 hPa SSE 3.2 km/h 12.9 km/h 44 % 0 mm
19:53 6.3 °C -5 °C 1025.3 hPa Calm   6.4 km/h 45 % 0 mm
19:55 6.5 °C -4.9 °C 1025.3 hPa SSE 3.2 km/h 12.9 km/h 44 % 0 mm
20:00 6.5 °C -4.9 °C 1025.3 hPa SSE 3.2 km/h 12.9 km/h 44 % 0 mm
20:05 6.2 °C -4.8 °C 1025.3 hPa East 1.6 km/h 6.4 km/h 45 % 0 mm
20:08 6.1 °C -5 °C 1025.3 hPa ESE 3.2 km/h 4.8 km/h 45 % 0 mm
20:10 6.2 °C -4.8 °C 1025.3 hPa East 1.6 km/h 6.4 km/h 45 % 0 mm
20:15 6.2 °C -4.8 °C 1025.3 hPa East 1.6 km/h 6.4 km/h 45 % 0 mm
20:20 5.9 °C -4.5 °C 1025.3 hPa ESE 1.6 km/h 11.3 km/h 47 % 0 mm
20:23 5.7 °C -4.4 °C 1025.3 hPa SSE 3.2 km/h 11.3 km/h 48 % 0 mm
20:25 5.9 °C -4.5 °C 1025.3 hPa ESE 1.6 km/h 11.3 km/h 47 % 0 mm
20:30 5.9 °C -4.5 °C 1025.3 hPa ESE 1.6 km/h 11.3 km/h 47 % 0 mm
20:35 5.7 °C -4.5 °C 1025.6 hPa SSE 3.2 km/h 11.3 km/h 48 % 0 mm
20:38 5.6 °C -4.4 °C 1025.6 hPa SE 6.4 km/h 12.9 km/h 49 % 0 mm
20:40 5.7 °C -4.5 °C 1025.6 hPa SSE 3.2 km/h 11.3 km/h 48 % 0 mm
20:45 5.7 °C -4.5 °C 1025.6 hPa SSE 3.2 km/h 11.3 km/h 48 % 0 mm
20:50 5.5 °C -4.4 °C 1025.6 hPa SE 3.2 km/h 14.5 km/h 49 % 0 mm
20:53 5.4 °C -4.4 °C 1026 hPa Calm   4.8 km/h 50 % 0 mm
20:55 5.5 °C -4.4 °C 1025.6 hPa SE 3.2 km/h 14.5 km/h 49 % 0 mm
21:00 5.5 °C -4.4 °C 1025.6 hPa SE 3.2 km/h 14.5 km/h 49 % 0 mm
21:05 5.3 °C -4.3 °C 1025.6 hPa SSE 1.6 km/h 8 km/h 50 % 0 mm
21:08 5.3 °C -4.4 °C 1025.6 hPa SE 3.2 km/h 6.4 km/h 50 % 0 mm
21:10 5.3 °C -4.3 °C 1025.6 hPa SSE 1.6 km/h 8 km/h 50 % 0 mm
21:15 5.3 °C -4.3 °C 1025.6 hPa SSE 1.6 km/h 8 km/h 50 % 0 mm
21:20 5.2 °C -4.3 °C 1025.6 hPa SE 1.6 km/h 6.4 km/h 50 % 0 mm
21:23 5.1 °C -4.4 °C 1025.6 hPa SE 4.8 km/h 14.5 km/h 50 % 0 mm
21:25 5.2 °C -4.3 °C 1025.6 hPa SE 1.6 km/h 6.4 km/h 50 % 0 mm
21:30 5.2 °C -4.3 °C 1025.6 hPa SE 1.6 km/h 6.4 km/h 50 % 0 mm
21:35 5.1 °C -4.5 °C 1025.6 hPa ESE 3.2 km/h 14.5 km/h 50 % 0 mm
21:38 4.9 °C -4.4 °C 1025.6 hPa Calm   6.4 km/h 51 % 0 mm
21:40 5.1 °C -4.5 °C 1025.6 hPa ESE 3.2 km/h 14.5 km/h 50 % 0 mm
21:45 5.1 °C -4.5 °C 1025.6 hPa ESE 3.2 km/h 14.5 km/h 50 % 0 mm
21:50 4.9 °C -4.4 °C 1026 hPa SE 1.6 km/h 9.7 km/h 51 % 0 mm
21:53 4.8 °C -4.4 °C 1026 hPa SE 6.4 km/h 11.3 km/h 51 % 0 mm
21:55 4.9 °C -4.4 °C 1026 hPa SE 1.6 km/h 9.7 km/h 51 % 0 mm
22:00 4.9 °C -4.4 °C 1026 hPa SE 1.6 km/h 9.7 km/h 51 % 0 mm
22:05 4.8 °C -4.5 °C 1026 hPa SE 3.2 km/h 12.9 km/h 51 % 0 mm
22:08 4.7 °C -4.4 °C 1026 hPa SE 1.6 km/h 6.4 km/h 52 % 0 mm
22:10 4.8 °C -4.5 °C 1026 hPa SE 3.2 km/h 12.9 km/h 51 % 0 mm
22:15 4.8 °C -4.5 °C 1026 hPa SE 3.2 km/h 12.9 km/h 51 % 0 mm
22:20 4.6 °C -4.2 °C 1026 hPa SE 1.6 km/h 8 km/h 53 % 0 mm
22:23 4.4 °C -4.4 °C 1026 hPa SSE 3.2 km/h 11.3 km/h 54 % 0 mm
22:25 4.6 °C -4.2 °C 1026 hPa SE 1.6 km/h 8 km/h 53 % 0 mm
22:30 4.6 °C -4.2 °C 1026 hPa SE 1.6 km/h 8 km/h 53 % 0 mm
22:35 4.3 °C -3.9 °C 1025.6 hPa SSE 3.2 km/h 11.3 km/h 55 % 0 mm
22:38 4.2 °C -3.9 °C 1025.6 hPa SE 3.2 km/h 8 km/h 56 % 0 mm
22:40 4.3 °C -3.9 °C 1025.6 hPa SSE 3.2 km/h 11.3 km/h 55 % 0 mm
22:45 4.3 °C -3.9 °C 1025.6 hPa SSE 3.2 km/h 11.3 km/h 55 % 0 mm
22:50 4.1 °C -3.7 °C 1026 hPa SE 3.2 km/h 8 km/h 57 % 0 mm
22:53 3.9 °C -3.9 °C 1025.6 hPa SSE 3.2 km/h 12.9 km/h 58 % 0 mm
22:55 4.1 °C -3.7 °C 1026 hPa SE 3.2 km/h 8 km/h 57 % 0 mm
23:00 4.1 °C -3.7 °C 1026 hPa SE 3.2 km/h 8 km/h 57 % 0 mm
23:05 3.8 °C -3.4 °C 1025.6 hPa SSE 3.2 km/h 12.9 km/h 59 % 0 mm
23:08 3.7 °C -3.3 °C 1026 hPa SSE 3.2 km/h 14.5 km/h 60 % 0 mm
23:10 3.8 °C -3.4 °C 1025.6 hPa SSE 3.2 km/h 12.9 km/h 59 % 0 mm
23:15 3.8 °C -3.4 °C 1025.6 hPa SSE 3.2 km/h 12.9 km/h 59 % 0 mm
23:20 3.7 °C -3.4 °C 1026 hPa SSE 3.2 km/h 14.5 km/h 60 % 0 mm
23:23 3.6 °C -3.3 °C 1025.6 hPa ESE 6.4 km/h 11.3 km/h 61 % 0 mm
23:25 3.7 °C -3.4 °C 1026 hPa SSE 3.2 km/h 14.5 km/h 60 % 0 mm
23:30 3.7 °C -3.4 °C 1026 hPa SSE 3.2 km/h 14.5 km/h 60 % 0 mm
23:35 3.5 °C -3.3 °C 1025.6 hPa SE 4.8 km/h 11.3 km/h 61 % 0 mm
23:38 3.4 °C -3.3 °C 1025.6 hPa SE 4.8 km/h 11.3 km/h 62 % 0 mm
23:40 3.5 °C -3.3 °C 1025.6 hPa SE 4.8 km/h 11.3 km/h 61 % 0 mm
23:45 3.5 °C -3.3 °C 1025.6 hPa SE 4.8 km/h 11.3 km/h 61 % 0 mm
23:50 3.3 °C -3.1 °C 1025.6 hPa SSE 4.8 km/h 14.5 km/h 63 % 0 mm
23:53 3.2 °C -3.3 °C 1025.3 hPa SE 6.4 km/h 12.9 km/h 63 % 0 mm
23:55 3.3 °C -3.1 °C 1025.6 hPa SSE 4.8 km/h 14.5 km/h 63 % 0 mm
Des Moines Weather and Climate
Compliments of Weather Underground - 4.5 mb

Script developed by  Jim McMurry - jmcmurry@mwt.net Adapted for the template by  Wim van der Kuil - Leuven-Template.eu

You find our weather info also at:

Weather Underground

Equipment we use:

Weather-station
Davis VP2 Plus

Weather-program
Davis Weatherlink.Com

Weather-server
iMac (Retina 4K, 21.5-inch, Late 2015)

Provider
Hostmonster.com

Davis VP2 Plus

Davis Weatherlink.Com

iMac (Retina 4K, 21.5-inch, Late 2015)

Hostmonster.com